MMLP/LAP METAR and TAF weather

Enter ICAO airport designator
Station Type Date Time Source
MMLP METAR 2020/12/01 21:49 UTC NOAA

MMLP 012149Z 35013KT 10SM SKC 25/11 A2994


Station Type Date Time Source
MMLP Decoded METAR 2020/12/01 21:49 UTC NOAA

La Paz International Airport, Mexico (MMLP) 24-04N 110-22W
Dec 01, 2020 - 04:49 PM EST / 2020.12.01 2149 UTC
Wind: from the N (350 degrees) at 15 MPH (13 KT):0
Visibility: 10 mile(s):0
Sky conditions: clear
Temperature: 77 F (25 C)
Dew Point: 51 F (11 C)
Relative Humidity: 41%
Pressure (altimeter): 29.94 in. Hg (1013 hPa)
ob: MMLP 012149Z 35013KT 10SM SKC 25/11 A2994
cycle: 22

Station Type Date Time Source
MMLP TAF 2020/12/01 18:23 UTC NOAA

TAF MMLP 011617Z 0118/0218 03015KT P6SM SKC
FM020400 20005KT P6SM SKC
FM021600 03012KT P6SM SKC

Example: see airport list